Big Bear Station Historical Data
Daily Summary for March 25, 2019 Units:  English    Metric   Both
Next Day »
Daily Weekly Monthly Yearly Custom
  High: Low: Average:
Temperature: 57.6 °F 23.9 °F 38.3 °F
Dew Point: 27.0 °F 7.4 °F 21.1 °F
Humidity: 96% 18% 59%
Wind Speed: 7.8mph 0.0mph 1.1mph
Wind Gust: -999.0mph - -
Wind- - West
Pressure: 23.62 in 23.56 in -
Precipitation: 0.00 in    
Historical Graphs
 
 
Tabular Data for March 25, 2019
Time Temperature Dew Point Pressure Wind Wind Speed Wind Gust Humidity Rainfall Rate (Hourly)
00:11 29.5 °F 26.9 °F 23.61 in Calm   -999.0 mph 90% 0.00 in
00:26 29.3 °F 27.0 °F 23.62 in Calm   -999.0 mph 91% 0.00 in
00:42 28.9 °F 26.6 °F 23.61 in Calm   -999.0 mph 91% 0.00 in
00:57 28.6 °F 26.6 °F 23.61 in Calm   -999.0 mph 92% 0.00 in
01:12 28.2 °F 26.2 °F 23.61 in Calm   -999.0 mph 92% 0.00 in
01:27 28.2 °F 26.4 °F 23.61 in Calm   -999.0 mph 93% 0.00 in
01:42 27.9 °F 26.1 °F 23.61 in Calm   -999.0 mph 93% 0.00 in
01:58 27.3 °F 25.5 °F 23.60 in Calm   -999.0 mph 93% 0.00 in
02:13 27.3 °F 25.5 °F 23.60 in Calm   -999.0 mph 93% 0.00 in
02:28 27.1 °F 25.6 °F 23.60 in Calm   -999.0 mph 94% 0.00 in
02:43 27.0 °F 25.8 °F 23.59 in Calm   -999.0 mph 95% 0.00 in
02:58 27.0 °F 25.8 °F 23.59 in Calm   -999.0 mph 95% 0.00 in
03:14 26.8 °F 25.8 °F 23.59 in Calm   -999.0 mph 96% 0.00 in
03:29 26.6 °F 25.6 °F 23.59 in Calm   -999.0 mph 96% 0.00 in
03:44 26.4 °F 25.4 °F 23.58 in Calm   -999.0 mph 96% 0.00 in
03:59 26.2 °F 25.2 °F 23.58 in Calm   -999.0 mph 96% 0.00 in
04:15 25.7 °F 24.7 °F 23.58 in Calm   -999.0 mph 96% 0.00 in
04:30 25.5 °F 23.2 °F 23.58 in Calm   -999.0 mph 91% 0.00 in
04:45 25.2 °F 22.4 °F 23.58 in Calm   -999.0 mph 89% 0.00 in
05:00 24.8 °F 22.0 °F 23.58 in Calm   -999.0 mph 89% 0.00 in
05:15 24.8 °F 22.0 °F 23.58 in Calm   -999.0 mph 89% 0.00 in
05:31 24.8 °F 22.0 °F 23.58 in Calm   -999.0 mph 89% 0.00 in
05:46 24.6 °F 21.8 °F 23.58 in Calm   -999.0 mph 89% 0.00 in
06:01 24.3 °F 21.5 °F 23.58 in Calm   -999.0 mph 89% 0.00 in
06:16 24.3 °F 21.3 °F 23.58 in Calm   -999.0 mph 88% 0.00 in
06:31 23.9 °F 21.1 °F 23.58 in Calm   -999.0 mph 89% 0.00 in
06:47 24.1 °F 21.1 °F 23.58 in Calm   -999.0 mph 88% 0.00 in
07:02 24.1 °F 21.1 °F 23.58 in Calm   -999.0 mph 88% 0.00 in
07:17 24.3 °F 21.0 °F 23.59 in Calm   -999.0 mph 87% 0.00 in
07:32 24.3 °F 20.4 °F 23.59 in Calm   -999.0 mph 85% 0.00 in
07:48 24.3 °F 20.7 °F 23.59 in Calm   -999.0 mph 86% 0.00 in
08:03 24.6 °F 21.3 °F 23.59 in Calm   -999.0 mph 87% 0.00 in
08:19 25.9 °F 22.3 °F 23.59 in Calm   -999.0 mph 86% 0.00 in
08:34 26.4 °F 23.6 °F 23.59 in Calm   -999.0 mph 89% 0.00 in
08:49 27.7 °F 24.9 °F 23.59 in Calm   -999.0 mph 89% 0.00 in
09:04 29.7 °F 26.3 °F 23.59 in Calm   -999.0 mph 87% 0.00 in
09:19 32.9 °F 23.8 °F 23.60 in Calm   -999.0 mph 69% 0.00 in
09:35 38.5 °F 7.4 °F 23.60 in SW 2.7 mph -999.0 mph 27% 0.00 in
09:50 40.6 °F 10.8 °F 23.60 in Calm   -999.0 mph 29% 0.00 in
10:05 43.5 °F 10.0 °F 23.61 in West 2.2 mph -999.0 mph 25% 0.00 in
10:20 45.3 °F 8.6 °F 23.61 in Calm   -999.0 mph 22% 0.00 in
10:35 46.6 °F 11.7 °F 23.61 in NNE 2.7 mph -999.0 mph 24% 0.00 in
10:51 49.1 °F 11.8 °F 23.61 in NW 2.2 mph -999.0 mph 22% 0.00 in
11:06 50.7 °F 14.2 °F 23.61 in West 1.7 mph -999.0 mph 23% 0.00 in
11:21 52.7 °F 12.7 °F 23.60 in WNW 2.7 mph -999.0 mph 20% 0.00 in
11:37 53.8 °F 12.5 °F 23.60 in West 1.1 mph -999.0 mph 19% 0.00 in
11:52 53.6 °F 11.1 °F 23.60 in NNW 4.7 mph -999.0 mph 18% 0.00 in
12:07 54.5 °F 14.2 °F 23.59 in NW 2.7 mph -999.0 mph 20% 0.00 in
12:22 55.0 °F 16.8 °F 23.59 in NW 3.7 mph -999.0 mph 22% 0.00 in
12:38 55.9 °F 16.5 °F 23.59 in North 3.7 mph -999.0 mph 21% 0.00 in
12:53 56.3 °F 14.5 °F 23.59 in West 2.7 mph -999.0 mph 19% 0.00 in
13:08 57.0 °F 17.4 °F 23.59 in NNW 3.7 mph -999.0 mph 21% 0.00 in
13:24 57.4 °F 15.4 °F 23.59 in South 3.7 mph -999.0 mph 19% 0.00 in
13:39 57.0 °F 17.4 °F 23.59 in NE 3.7 mph -999.0 mph 21% 0.00 in
13:54 57.4 °F 18.8 °F 23.58 in NNE 4.2 mph -999.0 mph 22% 0.00 in
14:10 57.0 °F 17.4 °F 23.58 in NNW 2.7 mph -999.0 mph 21% 0.00 in
14:25 57.6 °F 15.6 °F 23.58 in Calm   -999.0 mph 19% 0.00 in
14:40 57.4 °F 17.7 °F 23.58 in NW 6.8 mph -999.0 mph 21% 0.00 in
14:55 55.8 °F 19.5 °F 23.58 in NW 4.2 mph -999.0 mph 24% 0.00 in
15:11 55.8 °F 16.4 °F 23.57 in NNW 7.8 mph -999.0 mph 21% 0.00 in
15:26 55.0 °F 18.8 °F 23.58 in NNW 4.7 mph -999.0 mph 24% 0.00 in
15:41 54.5 °F 21.2 °F 23.57 in NW 3.7 mph -999.0 mph 27% 0.00 in
15:56 54.0 °F 21.6 °F 23.57 in NW 3.7 mph -999.0 mph 28% 0.00 in
16:12 52.9 °F 23.1 °F 23.57 in NW 4.2 mph -999.0 mph 31% 0.00 in
16:27 52.5 °F 21.9 °F 23.56 in West 3.2 mph -999.0 mph 30% 0.00 in
16:42 52.3 °F 20.1 °F 23.56 in NW 4.7 mph -999.0 mph 28% 0.00 in
16:57 52.3 °F 22.5 °F 23.56 in Calm   -999.0 mph 31% 0.00 in
17:12 55.4 °F 23.6 °F 23.56 in NW 3.2 mph -999.0 mph 29% 0.00 in
17:28 52.9 °F 22.3 °F 23.56 in NW 2.2 mph -999.0 mph 30% 0.00 in
17:43 51.1 °F 22.2 °F 23.56 in Calm   -999.0 mph 32% 0.00 in
17:58 49.6 °F 21.7 °F 23.56 in NW 1.7 mph -999.0 mph 33% 0.00 in
18:13 48.7 °F 21.6 °F 23.56 in SW 2.2 mph -999.0 mph 34% 0.00 in
18:28 47.8 °F 23.4 °F 23.56 in Calm   -999.0 mph 38% 0.00 in
18:44 46.6 °F 22.9 °F 23.56 in Calm   -999.0 mph 39% 0.00 in
18:59 44.8 °F 22.5 °F 23.56 in Calm   -999.0 mph 41% 0.00 in
19:14 42.6 °F 23.3 °F 23.56 in Calm   -999.0 mph 46% 0.00 in
19:29 41.0 °F 24.7 °F 23.56 in Calm   -999.0 mph 52% 0.00 in
19:45 39.7 °F 25.3 °F 23.56 in Calm   -999.0 mph 56% 0.00 in
20:00 38.1 °F 23.8 °F 23.56 in Calm   -999.0 mph 56% 0.00 in
20:15 36.9 °F 23.5 °F 23.56 in Calm   -999.0 mph 58% 0.00 in
20:30 35.8 °F 22.9 °F 23.56 in Calm   -999.0 mph 59% 0.00 in
20:46 35.1 °F 23.0 °F 23.56 in Calm   -999.0 mph 61% 0.00 in
21:01 34.3 °F 22.2 °F 23.56 in Calm   -999.0 mph 61% 0.00 in
21:17 33.4 °F 22.5 °F 23.57 in Calm   -999.0 mph 64% 0.00 in
21:32 32.7 °F 20.7 °F 23.57 in Calm   -999.0 mph 61% 0.00 in
21:47 32.2 °F 23.2 °F 23.57 in Calm   -999.0 mph 69% 0.00 in
22:02 31.8 °F 23.8 °F 23.57 in Calm   -999.0 mph 72% 0.00 in
22:17 31.3 °F 23.6 °F 23.57 in Calm   -999.0 mph 73% 0.00 in
22:33 30.9 °F 23.9 °F 23.57 in Calm   -999.0 mph 75% 0.00 in
22:48 30.4 °F 22.5 °F 23.57 in Calm   -999.0 mph 72% 0.00 in
23:03 30.2 °F 21.9 °F 23.57 in Calm   -999.0 mph 71% 0.00 in
23:18 29.8 °F 22.5 °F 23.56 in Calm   -999.0 mph 74% 0.00 in
23:34 29.3 °F 21.4 °F 23.56 in Calm   -999.0 mph 72% 0.00 in
23:49 29.3 °F 22.0 °F 23.56 in Calm   -999.0 mph 74% 0.00 in
Big Bear CA Weather